createdAt,value
2018-09-16T00:00:34.439Z,12.78
2018-09-16T00:03:02.716Z,8.97
2018-09-16T00:05:30.989Z,15.70
2018-09-16T00:07:59.308Z,10.37
2018-09-16T00:10:28.347Z,13.62
2018-09-16T00:12:56.641Z,18.20
2018-09-16T00:15:24.945Z,8.20
2018-09-16T00:17:53.243Z,10.93
2018-09-16T00:20:21.502Z,8.80
2018-09-16T00:22:49.804Z,11.65
2018-09-16T00:25:18.051Z,8.65
2018-09-16T00:27:46.308Z,10.82
2018-09-16T00:30:15.312Z,11.25
2018-09-16T00:32:43.759Z,12.50
2018-09-16T00:35:12.645Z,14.10
2018-09-16T00:37:40.922Z,12.93
2018-09-16T00:40:09.200Z,13.48
2018-09-16T00:42:37.460Z,13.70
2018-09-16T00:45:06.041Z,13.63
2018-09-16T00:47:34.321Z,11.33
2018-09-16T00:50:03.255Z,11.65
2018-09-16T00:52:31.565Z,12.00
2018-09-16T00:54:59.869Z,11.65
2018-09-16T00:57:28.137Z,9.65
2018-09-16T00:59:56.410Z,14.87
2018-09-16T01:02:24.636Z,10.32
2018-09-16T01:04:52.892Z,8.78
2018-09-16T01:07:21.116Z,12.10
2018-09-16T01:09:49.381Z,10.08
2018-09-16T01:12:17.593Z,14.90
2018-09-16T01:14:45.832Z,11.93
2018-09-16T01:17:14.044Z,9.95
2018-09-16T01:19:43.840Z,14.43
2018-09-16T01:22:12.081Z,11.97
2018-09-16T01:24:40.301Z,12.15
2018-09-16T01:27:08.537Z,9.20
2018-09-16T01:29:36.762Z,10.60
2018-09-16T01:32:05.083Z,10.10
2018-09-16T01:34:33.301Z,11.10
2018-09-16T01:37:05.721Z,11.50
2018-09-16T01:39:34.112Z,9.53
2018-09-16T01:42:02.377Z,13.68
2018-09-16T01:44:30.609Z,11.40
2018-09-16T01:46:58.861Z,9.95
2018-09-16T01:49:27.084Z,11.33
2018-09-16T01:51:55.325Z,14.50
2018-09-16T01:54:23.548Z,10.58
2018-09-16T01:56:51.782Z,8.78
2018-09-16T01:59:20.040Z,12.65
2018-09-16T02:01:48.297Z,14.07
2018-09-16T02:04:16.533Z,9.78
2018-09-16T02:06:44.770Z,11.35
2018-09-16T02:09:12.985Z,8.43
2018-09-16T02:11:41.246Z,9.73
2018-09-16T02:14:09.480Z,13.38
2018-09-16T02:16:37.752Z,13.55
2018-09-16T02:19:06.040Z,11.08
2018-09-16T02:21:34.269Z,10.72
2018-09-16T02:24:02.512Z,9.13
2018-09-16T02:26:30.784Z,10.20
2018-09-16T02:28:59.088Z,10.77
2018-09-16T02:31:27.321Z,12.13
2018-09-16T02:33:55.581Z,10.40
2018-09-16T02:36:23.793Z,9.53
2018-09-16T02:38:52.065Z,12.05
2018-09-16T02:41:20.285Z,11.03
2018-09-16T02:43:48.569Z,13.15
2018-09-16T02:46:16.788Z,14.63
2018-09-16T02:48:45.018Z,11.75
2018-09-16T02:51:13.261Z,16.30
2018-09-16T02:53:41.496Z,13.30
2018-09-16T02:56:09.718Z,11.00
2018-09-16T02:58:37.949Z,12.10
2018-09-16T03:01:06.192Z,12.93
2018-09-16T03:03:34.545Z,12.70
2018-09-16T03:06:02.754Z,13.30
2018-09-16T03:08:30.998Z,8.18
2018-09-16T03:10:59.230Z,7.67
2018-09-16T03:13:27.464Z,11.77
2018-09-16T03:15:55.686Z,12.40
2018-09-16T03:18:23.929Z,9.70
2018-09-16T03:20:52.136Z,8.68
2018-09-16T03:23:20.354Z,10.32
2018-09-16T03:25:48.568Z,12.27
2018-09-16T03:28:16.805Z,10.28
2018-09-16T03:30:45.049Z,11.53
2018-09-16T03:33:13.253Z,9.00
2018-09-16T03:35:41.480Z,7.45
2018-09-16T03:38:09.685Z,7.83
2018-09-16T03:40:37.943Z,9.08
2018-09-16T03:43:06.320Z,11.22
2018-09-16T03:45:34.557Z,12.60
2018-09-16T03:48:02.801Z,8.73
2018-09-16T03:50:31.041Z,6.97
2018-09-16T03:52:59.249Z,7.47
2018-09-16T03:55:27.475Z,11.33
2018-09-16T03:57:55.680Z,8.93
2018-09-16T04:00:23.950Z,12.53
2018-09-16T04:02:52.188Z,8.70
2018-09-16T04:05:20.784Z,7.50
2018-09-16T04:07:49.956Z,6.40
2018-09-16T04:10:18.233Z,12.68
2018-09-16T04:12:46.603Z,7.83
2018-09-16T04:15:14.880Z,7.00
2018-09-16T04:17:43.115Z,8.85
2018-09-16T04:20:11.344Z,7.83
2018-09-16T04:22:39.601Z,11.88
2018-09-16T04:25:08.143Z,6.95
2018-09-16T04:27:36.369Z,13.32
2018-09-16T04:30:04.953Z,7.12
2018-09-16T04:32:33.217Z,7.67
2018-09-16T04:35:01.449Z,9.45
2018-09-16T04:37:29.690Z,11.68
2018-09-16T04:39:57.925Z,11.70
2018-09-16T04:42:26.185Z,8.83
2018-09-16T04:44:55.467Z,8.13
2018-09-16T04:47:23.697Z,8.70
2018-09-16T04:49:51.917Z,9.90
2018-09-16T04:52:20.190Z,10.68
2018-09-16T04:54:48.417Z,8.50
2018-09-16T04:57:16.660Z,9.48
2018-09-16T04:59:44.993Z,13.50
2018-09-16T05:02:13.230Z,11.88
2018-09-16T05:04:41.506Z,8.10
2018-09-16T05:07:09.816Z,12.43
2018-09-16T05:09:38.101Z,11.45
2018-09-16T05:12:06.715Z,7.20
2018-09-16T05:14:35.018Z,12.83
2018-09-16T05:17:03.322Z,7.47
2018-09-16T05:19:31.595Z,13.95
2018-09-16T05:21:59.912Z,15.60
2018-09-16T05:24:28.204Z,10.20
2018-09-16T05:26:56.568Z,10.28
2018-09-16T05:29:24.838Z,14.47
2018-09-16T05:31:53.136Z,11.08
2018-09-16T05:34:21.427Z,10.08
2018-09-16T05:36:49.829Z,11.00
2018-09-16T05:39:18.139Z,10.90
2018-09-16T05:41:46.494Z,11.63
2018-09-16T05:44:14.829Z,9.73
2018-09-16T05:46:43.122Z,9.48
2018-09-16T05:49:11.427Z,11.90
2018-09-16T05:51:39.735Z,10.43
2018-09-16T05:54:08.030Z,11.03
2018-09-16T05:56:36.338Z,12.68
2018-09-16T05:59:04.680Z,14.00
2018-09-16T06:01:32.984Z,9.93
2018-09-16T06:04:01.284Z,15.05
2018-09-16T06:06:29.589Z,10.82
2018-09-16T06:08:57.894Z,16.25
2018-09-16T06:11:26.189Z,11.43
2018-09-16T06:13:54.789Z,11.75
2018-09-16T06:16:23.086Z,15.72
2018-09-16T06:18:51.397Z,14.13
2018-09-16T06:21:19.683Z,15.85
2018-09-16T06:23:47.999Z,12.60
2018-09-16T06:26:16.357Z,13.53
2018-09-16T06:28:44.659Z,19.80
2018-09-16T06:31:12.941Z,13.18
2018-09-16T06:33:41.277Z,16.30
2018-09-16T06:36:09.524Z,16.43
2018-09-16T06:38:37.805Z,15.75
2018-09-16T06:41:06.281Z,12.13
2018-09-16T06:43:34.553Z,14.40
2018-09-16T06:46:02.941Z,15.18
2018-09-16T06:48:31.229Z,19.85
2018-09-16T06:50:59.592Z,19.57
2018-09-16T06:53:27.881Z,20.77
2018-09-16T06:55:56.201Z,12.00
2018-09-16T06:58:24.474Z,13.62
2018-09-16T07:00:52.853Z,15.90
2018-09-16T07:03:21.125Z,21.35
2018-09-16T07:05:49.592Z,20.63
2018-09-16T07:08:17.943Z,18.75
2018-09-16T07:10:46.260Z,18.48
2018-09-16T07:13:14.545Z,15.10
2018-09-16T07:15:42.840Z,20.60
2018-09-16T07:18:11.133Z,20.32
2018-09-16T07:20:39.461Z,16.87
2018-09-16T07:23:07.742Z,20.02
2018-09-16T07:25:36.038Z,19.30
2018-09-16T07:28:04.329Z,17.40
2018-09-16T07:30:32.659Z,21.12
2018-09-16T07:33:00.937Z,18.92
2018-09-16T07:35:29.237Z,22.73
2018-09-16T07:37:57.545Z,27.52
2018-09-16T07:40:25.813Z,20.83
2018-09-16T07:42:54.142Z,20.45
2018-09-16T07:45:22.421Z,21.40
2018-09-16T07:47:50.742Z,24.95
2018-09-16T07:50:19.115Z,22.27
2018-09-16T07:52:47.550Z,20.62
2018-09-16T07:55:15.774Z,18.83
2018-09-16T07:57:44.079Z,21.27
2018-09-16T08:00:12.399Z,22.07
2018-09-16T08:02:40.714Z,18.20
2018-09-16T08:05:09.074Z,28.27
2018-09-16T08:07:37.368Z,22.33
2018-09-16T08:10:05.689Z,18.00
2018-09-16T08:12:34.000Z,20.87
2018-09-16T08:15:02.269Z,19.53
2018-09-16T08:17:30.573Z,18.42
2018-09-16T08:19:58.849Z,21.70
2018-09-16T08:22:27.175Z,18.65
2018-09-16T08:24:55.704Z,26.70
2018-09-16T08:27:23.995Z,20.80
2018-09-16T08:29:52.286Z,24.15
2018-09-16T08:32:20.593Z,18.80
2018-09-16T08:34:48.857Z,18.37
2018-09-16T08:37:17.151Z,24.32
2018-09-16T08:39:45.488Z,24.50
2018-09-16T08:42:13.782Z,19.07
2018-09-16T08:44:42.077Z,14.33
2018-09-16T08:47:10.368Z,17.35
2018-09-16T08:49:38.663Z,23.87
2018-09-16T08:52:07.021Z,15.63
2018-09-16T08:54:35.325Z,15.70
2018-09-16T08:57:03.642Z,14.80
2018-09-16T08:59:32.000Z,18.52
2018-09-16T09:02:00.322Z,18.13
2018-09-16T09:04:28.656Z,12.47
2018-09-16T09:06:56.914Z,18.63
2018-09-16T09:09:25.223Z,13.83
2018-09-16T09:11:53.538Z,12.82
2018-09-16T09:14:21.909Z,12.33
2018-09-16T09:16:50.158Z,11.20
2018-09-16T09:19:18.474Z,9.80
2018-09-16T09:21:46.709Z,20.20
2018-09-16T09:24:14.957Z,12.33
2018-09-16T09:26:43.190Z,10.50
2018-09-16T09:29:11.457Z,8.68
2018-09-16T09:31:39.705Z,11.80
2018-09-16T09:34:07.960Z,10.18
2018-09-16T09:36:36.205Z,9.95
2018-09-16T09:39:06.525Z,12.65
2018-09-16T09:41:34.764Z,9.88
2018-09-16T09:44:03.053Z,9.63
2018-09-16T09:46:31.300Z,10.55
2018-09-16T09:48:59.528Z,6.63
2018-09-16T09:51:27.792Z,5.23
2018-09-16T09:53:56.049Z,7.70
2018-09-16T09:56:24.297Z,6.25
2018-09-16T09:58:52.599Z,6.85
2018-09-16T10:01:21.804Z,8.10
2018-09-16T10:03:50.056Z,8.68
2018-09-16T10:06:18.329Z,6.60
2018-09-16T10:08:46.571Z,10.30
2018-09-16T10:11:14.844Z,8.70
2018-09-16T10:13:43.069Z,8.20
2018-09-16T10:16:11.343Z,8.53
2018-09-16T10:18:39.613Z,9.58
2018-09-16T10:21:07.896Z,12.57
2018-09-16T10:23:36.133Z,9.75
2018-09-16T10:26:04.393Z,9.30
2018-09-16T10:28:32.625Z,6.67
2018-09-16T10:31:00.897Z,7.95
2018-09-16T10:33:29.141Z,7.45
2018-09-16T10:35:57.408Z,6.83
2018-09-16T10:38:25.656Z,8.90
2018-09-16T10:40:53.896Z,7.50
2018-09-16T10:43:22.131Z,7.40
2018-09-16T10:45:50.397Z,8.10
2018-09-16T10:48:18.665Z,6.23
2018-09-16T10:50:46.896Z,5.50
2018-09-16T10:53:16.260Z,8.00
2018-09-16T10:55:44.507Z,8.10
2018-09-16T10:58:13.033Z,9.07
2018-09-16T11:00:41.293Z,3.63
2018-09-16T11:03:09.540Z,4.35
2018-09-16T11:05:37.792Z,7.40
2018-09-16T11:08:06.152Z,7.77
2018-09-16T11:10:34.348Z,5.20
2018-09-16T11:13:02.798Z,7.23
2018-09-16T11:15:31.041Z,5.22
2018-09-16T11:17:59.297Z,6.37
2018-09-16T11:20:27.537Z,5.62
2018-09-16T11:22:55.792Z,7.43
2018-09-16T11:25:24.025Z,7.97
2018-09-16T11:27:52.313Z,7.07
2018-09-16T11:30:20.536Z,3.80
2018-09-16T11:32:48.799Z,7.30
2018-09-16T11:35:17.025Z,7.33
2018-09-16T11:37:45.720Z,4.50
2018-09-16T11:40:13.981Z,7.15
2018-09-16T11:42:42.248Z,5.77
2018-09-16T11:45:10.490Z,5.25
2018-09-16T11:47:38.792Z,7.27
2018-09-16T11:50:07.033Z,6.47
2018-09-16T11:52:35.265Z,6.20
2018-09-16T11:55:03.549Z,8.13
2018-09-16T11:57:31.784Z,8.18
2018-09-16T12:00:00.080Z,7.80
2018-09-16T12:02:28.349Z,7.85
2018-09-16T12:04:56.609Z,5.90
2018-09-16T12:07:24.853Z,4.87
2018-09-16T12:09:53.153Z,5.55
2018-09-16T12:12:21.385Z,5.67
2018-09-16T12:14:49.636Z,6.70
2018-09-16T12:17:17.864Z,7.90
2018-09-16T12:19:46.149Z,6.87
2018-09-16T12:22:14.419Z,4.80
2018-09-16T12:24:42.680Z,6.55
2018-09-16T12:27:10.926Z,4.17
2018-09-16T12:29:39.184Z,6.43
2018-09-16T12:32:07.413Z,5.95
2018-09-16T12:34:35.940Z,5.12
2018-09-16T12:37:04.192Z,5.90
2018-09-16T12:39:32.440Z,5.13
2018-09-16T12:42:00.694Z,7.90
2018-09-16T12:44:28.955Z,5.80
2018-09-16T12:46:57.188Z,6.40
2018-09-16T12:49:25.458Z,4.17
2018-09-16T12:51:53.697Z,8.35
2018-09-16T12:54:21.949Z,6.83
2018-09-16T12:56:50.308Z,6.17
2018-09-16T12:59:22.353Z,5.93
2018-09-16T13:01:50.642Z,4.40
2018-09-16T13:04:18.932Z,5.43
2018-09-16T13:06:47.165Z,4.62
2018-09-16T13:09:15.397Z,7.87
2018-09-16T13:11:43.637Z,4.47
2018-09-16T13:14:11.862Z,4.50
2018-09-16T13:16:40.117Z,5.00
2018-09-16T13:19:08.362Z,5.35
2018-09-16T13:21:36.629Z,6.60
2018-09-16T13:24:04.860Z,4.75
2018-09-16T13:26:33.125Z,5.00
2018-09-16T13:29:01.363Z,5.08
2018-09-16T13:31:29.647Z,6.23
2018-09-16T13:33:58.209Z,6.10
2018-09-16T13:36:26.478Z,5.20
2018-09-16T13:38:54.833Z,8.43
2018-09-16T13:41:23.106Z,8.05
2018-09-16T13:43:51.336Z,5.03
2018-09-16T13:46:19.616Z,5.47
2018-09-16T13:48:47.861Z,5.10
2018-09-16T13:51:16.138Z,6.37
2018-09-16T13:53:45.014Z,4.33
2018-09-16T13:56:13.236Z,8.20
2018-09-16T13:58:41.481Z,3.80
2018-09-16T14:01:09.736Z,4.92
2018-09-16T14:03:37.982Z,5.27
2018-09-16T14:06:06.254Z,6.22
2018-09-16T14:08:34.500Z,4.70
2018-09-16T14:11:02.728Z,5.87
2018-09-16T14:13:30.976Z,5.57
2018-09-16T14:15:59.203Z,4.63
2018-09-16T14:18:27.480Z,4.20
2018-09-16T14:20:55.836Z,4.80
2018-09-16T14:23:24.061Z,4.80
2018-09-16T14:25:52.589Z,2.83
2018-09-16T14:28:23.039Z,3.67
2018-09-16T14:30:51.249Z,6.27
2018-09-16T14:33:19.496Z,4.03
2018-09-16T14:35:47.724Z,5.85
2018-09-16T14:38:15.973Z,4.50
2018-09-16T14:40:44.257Z,5.17
2018-09-16T14:43:12.613Z,5.33
2018-09-16T14:45:40.830Z,4.90
2018-09-16T14:48:09.088Z,4.17
2018-09-16T14:50:37.353Z,3.25
2018-09-16T14:53:05.625Z,7.22
2018-09-16T14:55:33.878Z,4.73
2018-09-16T14:58:02.101Z,3.98
2018-09-16T15:00:30.390Z,5.53
2018-09-16T15:02:59.744Z,5.22
2018-09-16T15:05:27.992Z,5.93
2018-09-16T15:07:56.233Z,5.47
2018-09-16T15:10:24.484Z,4.20
2018-09-16T15:12:53.673Z,3.20
2018-09-16T15:15:21.968Z,5.70
2018-09-16T15:17:50.200Z,4.67
2018-09-16T15:20:18.448Z,6.62
2018-09-16T15:22:46.704Z,3.60
2018-09-16T15:25:14.957Z,5.40
2018-09-16T15:27:43.189Z,4.07
2018-09-16T15:30:11.472Z,1.97
2018-09-16T15:32:39.712Z,3.40
2018-09-16T15:35:08.010Z,4.15
2018-09-16T15:37:36.267Z,4.65
2018-09-16T15:40:04.540Z,3.55
2018-09-16T15:42:32.780Z,4.37
2018-09-16T15:45:01.062Z,3.00
2018-09-16T15:47:29.296Z,5.10
2018-09-16T15:49:57.558Z,4.63
2018-09-16T15:52:25.809Z,2.70
2018-09-16T15:54:54.117Z,6.60
2018-09-16T15:57:22.362Z,5.03
2018-09-16T15:59:50.665Z,8.30
2018-09-16T16:02:18.886Z,3.92
2018-09-16T16:04:47.165Z,4.80
2018-09-16T16:07:15.396Z,3.10
2018-09-16T16:09:44.000Z,8.18
2018-09-16T16:12:12.253Z,3.95
2018-09-16T16:14:40.493Z,4.13
2018-09-16T16:17:08.766Z,6.12
2018-09-16T16:19:37.009Z,7.90
2018-09-16T16:22:05.261Z,11.70
2018-09-16T16:24:33.617Z,4.93
2018-09-16T16:27:01.898Z,4.45
2018-09-16T16:29:30.130Z,5.62
2018-09-16T16:31:58.407Z,5.07
2018-09-16T16:34:26.724Z,5.80
2018-09-16T16:36:54.929Z,4.93
2018-09-16T16:39:23.158Z,5.17
2018-09-16T16:41:51.485Z,5.90
2018-09-16T16:44:19.704Z,6.77
2018-09-16T16:46:47.956Z,5.10
2018-09-16T16:49:16.221Z,6.10
2018-09-16T16:51:44.481Z,3.30
2018-09-16T16:54:13.886Z,5.40
2018-09-16T16:56:42.164Z,3.80
2018-09-16T16:59:10.412Z,6.00
2018-09-16T17:01:38.677Z,4.25
2018-09-16T17:04:06.913Z,2.87
2018-09-16T17:06:35.192Z,7.70
2018-09-16T17:09:03.620Z,7.45
2018-09-16T17:11:31.865Z,3.83
2018-09-16T17:14:00.117Z,7.35
2018-09-16T17:16:28.377Z,10.50
2018-09-16T17:18:56.673Z,8.00
2018-09-16T17:21:24.908Z,3.70
2018-09-16T17:23:53.277Z,3.17
2018-09-16T17:26:21.854Z,5.90
2018-09-16T17:28:50.213Z,5.42
2018-09-16T17:31:18.505Z,4.77
2018-09-16T17:33:46.760Z,6.28
2018-09-16T17:36:14.978Z,5.83
2018-09-16T17:38:43.361Z,3.47
2018-09-16T17:41:11.637Z,5.20
2018-09-16T17:43:40.033Z,9.55
2018-09-16T17:46:08.694Z,6.17
2018-09-16T17:48:37.028Z,5.40
2018-09-16T17:51:05.460Z,3.70
2018-09-16T17:53:33.773Z,5.73
2018-09-16T17:56:02.205Z,3.87
2018-09-16T17:58:30.469Z,3.77
2018-09-16T18:00:58.753Z,2.62
2018-09-16T18:03:27.047Z,5.53
2018-09-16T18:05:56.235Z,6.02
2018-09-16T18:08:30.037Z,6.73
2018-09-16T18:10:58.412Z,4.07
2018-09-16T18:13:26.783Z,5.50
2018-09-16T18:15:55.158Z,5.90
2018-09-16T18:18:23.465Z,10.80
2018-09-16T18:20:51.821Z,7.22
2018-09-16T18:23:20.163Z,3.85
2018-09-16T18:25:48.408Z,7.50
2018-09-16T18:28:16.720Z,6.78
2018-09-16T18:30:45.013Z,6.15
2018-09-16T18:33:13.265Z,9.68
2018-09-16T18:35:42.368Z,4.53
2018-09-16T18:38:10.674Z,8.73
2018-09-16T18:40:38.928Z,10.60
2018-09-16T18:43:07.270Z,7.00
2018-09-16T18:45:35.565Z,5.78
2018-09-16T18:48:03.845Z,4.30
2018-09-16T18:50:32.440Z,8.18
2018-09-16T18:53:00.676Z,9.03
2018-09-16T18:55:28.993Z,9.38
2018-09-16T18:57:57.289Z,7.90
2018-09-16T19:00:25.817Z,10.68
2018-09-16T19:02:54.240Z,6.55
2018-09-16T19:05:22.502Z,5.30
2018-09-16T19:07:51.205Z,7.92
2018-09-16T19:10:19.816Z,4.67
2018-09-16T19:12:48.108Z,10.10
2018-09-16T19:15:16.453Z,6.33
2018-09-16T19:17:44.748Z,9.33
2018-09-16T19:20:13.029Z,8.80
2018-09-16T19:22:41.312Z,9.03
2018-09-16T19:25:09.650Z,10.10
2018-09-16T19:27:38.633Z,7.33
2018-09-16T19:30:07.207Z,7.47
2018-09-16T19:32:35.506Z,8.10
2018-09-16T19:35:04.088Z,6.72
2018-09-16T19:37:32.339Z,9.90
2018-09-16T19:40:00.612Z,7.57
2018-09-16T19:42:28.889Z,10.57
2018-09-16T19:44:57.153Z,6.83
2018-09-16T19:47:26.399Z,5.75
2018-09-16T19:49:54.640Z,4.65
2018-09-16T19:52:22.995Z,10.57
2018-09-16T19:54:51.308Z,7.17
2018-09-16T19:57:19.537Z,5.37
2018-09-16T19:59:47.806Z,9.40
2018-09-16T20:02:16.066Z,5.77
2018-09-16T20:04:44.401Z,5.70
2018-09-16T20:07:13.057Z,10.75
2018-09-16T20:09:41.450Z,6.33
2018-09-16T20:12:09.857Z,4.80
2018-09-16T20:14:38.092Z,5.50
2018-09-16T20:17:06.313Z,6.30
2018-09-16T20:19:34.657Z,5.20
2018-09-16T20:22:02.878Z,5.80
2018-09-16T20:24:31.117Z,5.80
2018-09-16T20:26:59.355Z,7.73
2018-09-16T20:29:27.609Z,5.75
2018-09-16T20:31:55.919Z,8.15
2018-09-16T20:34:24.173Z,8.05
2018-09-16T20:36:52.441Z,3.75
2018-09-16T20:39:20.674Z,4.80
2018-09-16T20:41:49.011Z,5.03
2018-09-16T20:44:17.572Z,5.50
2018-09-16T20:46:45.852Z,4.50
2018-09-16T20:49:14.241Z,6.00
2018-09-16T20:51:42.468Z,5.70
2018-09-16T20:54:10.865Z,13.47
2018-09-16T20:56:39.363Z,5.15
2018-09-16T20:59:07.788Z,7.30
2018-09-16T21:01:36.125Z,7.08
2018-09-16T21:04:05.329Z,6.34
2018-09-16T21:06:33.544Z,5.33
2018-09-16T21:09:01.803Z,7.23
2018-09-16T21:11:30.037Z,7.53
2018-09-16T21:13:58.326Z,8.40
2018-09-16T21:16:26.557Z,5.65
2018-09-16T21:18:54.792Z,8.43
2018-09-16T21:21:23.902Z,4.30
2018-09-16T21:23:52.898Z,7.20
2018-09-16T21:26:21.330Z,5.03
2018-09-16T21:28:49.809Z,5.70
2018-09-16T21:31:18.040Z,7.13
2018-09-16T21:33:46.248Z,6.17
2018-09-16T21:36:14.486Z,5.27
2018-09-16T21:38:42.735Z,12.70
2018-09-16T21:41:10.974Z,5.30
2018-09-16T21:43:39.177Z,5.20
2018-09-16T21:46:07.426Z,10.00
2018-09-16T21:48:35.645Z,7.77
2018-09-16T21:51:03.887Z,6.62
2018-09-16T21:53:32.097Z,5.80
2018-09-16T21:56:00.332Z,5.97
2018-09-16T21:58:28.537Z,7.10
2018-09-16T22:00:56.804Z,9.30
2018-09-16T22:03:25.948Z,6.47
2018-09-16T22:05:54.865Z,7.50
2018-09-16T22:08:23.108Z,7.92
2018-09-16T22:10:51.349Z,15.88
2018-09-16T22:13:19.628Z,9.40
2018-09-16T22:15:47.992Z,11.48
2018-09-16T22:18:16.229Z,8.50
2018-09-16T22:20:44.485Z,9.25
2018-09-16T22:23:12.683Z,10.87
2018-09-16T22:25:40.921Z,8.10
2018-09-16T22:28:09.141Z,7.87
2018-09-16T22:30:37.404Z,6.87
2018-09-16T22:33:05.640Z,5.72
2018-09-16T22:35:33.906Z,5.03
2018-09-16T22:38:02.144Z,8.83
2018-09-16T22:40:30.348Z,6.22
2018-09-16T22:42:58.580Z,7.85
2018-09-16T22:45:26.800Z,6.53
2018-09-16T22:47:55.032Z,4.90
2018-09-16T22:50:23.237Z,6.87
2018-09-16T22:52:51.456Z,6.75
2018-09-16T22:55:19.657Z,5.97
2018-09-16T22:57:47.920Z,10.70
2018-09-16T23:00:17.726Z,6.17
2018-09-16T23:02:45.972Z,4.78
2018-09-16T23:05:14.208Z,5.62
2018-09-16T23:07:42.965Z,7.30
2018-09-16T23:10:11.173Z,8.10
2018-09-16T23:12:39.716Z,7.65
2018-09-16T23:15:07.947Z,7.40
2018-09-16T23:17:36.172Z,9.40
2018-09-16T23:20:04.424Z,6.25
2018-09-16T23:22:32.652Z,9.00
2018-09-16T23:25:00.869Z,6.67
2018-09-16T23:27:29.097Z,8.20
2018-09-16T23:29:57.325Z,9.23
2018-09-16T23:32:25.556Z,8.75
2018-09-16T23:34:53.796Z,6.40
2018-09-16T23:37:22.053Z,7.25
2018-09-16T23:39:50.284Z,4.53
2018-09-16T23:42:18.496Z,5.40
2018-09-16T23:44:46.729Z,7.83
2018-09-16T23:47:14.941Z,7.25
2018-09-16T23:49:43.179Z,5.67
2018-09-16T23:52:11.389Z,6.40
2018-09-16T23:54:39.640Z,5.55
2018-09-16T23:57:07.857Z,6.15
2018-09-16T23:59:36.108Z,9.58
